createdAt,value
2024-01-30T00:00:49.344Z,37.67
2024-01-30T00:06:12.287Z,36.00
2024-01-30T00:11:14.040Z,27.00
2024-01-30T00:16:23.156Z,21.00
2024-01-30T00:21:25.685Z,36.33
2024-01-30T00:26:27.536Z,33.50
2024-01-30T00:31:30.122Z,28.50
2024-01-30T00:36:32.109Z,34.00
2024-01-30T00:41:33.817Z,31.00
2024-01-30T00:46:35.684Z,34.00
2024-01-30T00:51:37.547Z,30.00
2024-01-30T00:56:39.559Z,29.50
2024-01-30T01:01:43.489Z,36.00
2024-01-30T01:06:45.712Z,33.00
2024-01-30T01:11:48.389Z,22.00
2024-01-30T01:16:52.796Z,30.00
2024-01-30T01:21:54.743Z,30.00
2024-01-30T01:26:57.851Z,28.00
2024-01-30T01:31:59.740Z,31.67
2024-01-30T01:37:01.647Z,30.00
2024-01-30T01:42:03.868Z,25.50
2024-01-30T01:47:05.732Z,31.00
2024-01-30T01:52:07.782Z,30.00
2024-01-30T01:57:09.701Z,111.50
2024-01-30T02:02:12.661Z,39.33
2024-01-30T02:07:14.661Z,42.00
2024-01-30T02:12:16.595Z,31.00
2024-01-30T02:17:18.486Z,35.33
2024-01-30T02:22:21.649Z,34.00
2024-01-30T02:27:23.751Z,27.00
2024-01-30T02:32:25.618Z,30.00
2024-01-30T02:37:27.514Z,31.00
2024-01-30T02:42:29.395Z,30.00
2024-01-30T02:47:31.303Z,33.00
2024-01-30T02:52:33.302Z,26.00
2024-01-30T02:57:35.136Z,33.00
2024-01-30T03:02:39.062Z,31.00
2024-01-30T03:07:41.126Z,24.00
2024-01-30T03:12:43.013Z,24.50
2024-01-30T03:17:45.054Z,26.33
2024-01-30T03:22:46.870Z,10.00
2024-01-30T03:27:48.660Z,24.00
2024-01-30T03:32:50.946Z,30.00
2024-01-30T03:37:52.845Z,28.00
2024-01-30T03:42:54.697Z,30.00
2024-01-30T03:47:56.523Z,28.00
2024-01-30T03:52:58.487Z,25.00
2024-01-30T03:58:00.359Z,30.00
2024-01-30T04:03:02.446Z,24.00
2024-01-30T04:08:04.741Z,29.00
2024-01-30T04:13:08.144Z,30.00
2024-01-30T04:18:11.882Z,24.00
2024-01-30T04:23:13.662Z,27.00
2024-01-30T04:28:15.584Z,31.50
2024-01-30T04:33:19.008Z,18.00
2024-01-30T04:38:20.758Z,30.00
2024-01-30T04:43:22.502Z,27.50
2024-01-30T04:48:24.572Z,22.33
2024-01-30T04:53:26.298Z,27.50
2024-01-30T04:58:28.141Z,30.00
2024-01-30T05:03:34.434Z,21.00
2024-01-30T05:08:37.446Z,22.00
2024-01-30T05:13:42.085Z,26.00
2024-01-30T05:18:44.031Z,33.00
2024-01-30T05:23:45.986Z,33.00
2024-01-30T05:28:48.755Z,36.00
2024-01-30T05:33:50.799Z,33.00
2024-01-30T05:38:52.834Z,34.00
2024-01-30T05:43:54.872Z,29.00
2024-01-30T05:48:56.685Z,18.67
2024-01-30T05:53:58.548Z,31.00
2024-01-30T05:59:00.420Z,34.00
2024-01-30T06:04:02.608Z,30.50
2024-01-30T06:09:04.580Z,33.00
2024-01-30T06:14:09.658Z,34.00
2024-01-30T06:19:11.534Z,30.00
2024-01-30T06:24:13.439Z,36.50
2024-01-30T06:29:19.941Z,33.00
2024-01-30T06:34:22.345Z,34.00
2024-01-30T06:39:24.280Z,30.00
2024-01-30T06:44:26.146Z,35.33
2024-01-30T06:49:28.136Z,33.00
2024-01-30T06:54:30.031Z,30.00
2024-01-30T06:59:32.287Z,30.50
2024-01-30T07:04:34.346Z,39.00
2024-01-30T07:09:36.993Z,39.00
2024-01-30T07:14:38.881Z,36.00
2024-01-30T07:19:40.737Z,38.00
2024-01-30T07:24:48.795Z,39.00
2024-01-30T07:29:50.534Z,37.00
2024-01-30T07:35:02.500Z,42.00
2024-01-30T07:40:09.692Z,46.00
2024-01-30T07:45:11.619Z,41.00
2024-01-30T07:50:13.588Z,42.00
2024-01-30T07:55:15.422Z,42.00
2024-01-30T08:00:17.935Z,40.00
2024-01-30T08:05:19.926Z,42.00
2024-01-30T08:10:22.070Z,42.00
2024-01-30T08:15:23.996Z,49.00
2024-01-30T08:20:26.207Z,50.00
2024-01-30T08:25:28.055Z,52.00
2024-01-30T08:30:30.028Z,51.50
2024-01-30T08:35:34.173Z,51.00
2024-01-30T08:40:36.250Z,46.00
2024-01-30T08:45:38.215Z,47.50
2024-01-30T08:50:39.987Z,44.50
2024-01-30T08:55:41.771Z,45.00
2024-01-30T09:00:43.649Z,44.00
2024-01-30T09:05:45.550Z,60.00
2024-01-30T09:10:47.529Z,45.00
2024-01-30T09:15:49.653Z,46.00
2024-01-30T09:20:51.583Z,50.00
2024-01-30T09:25:53.431Z,59.00
2024-01-30T09:30:55.435Z,57.33
2024-01-30T09:35:57.344Z,60.50
2024-01-30T09:41:02.186Z,63.50
2024-01-30T09:46:04.352Z,60.50
2024-01-30T09:51:06.190Z,57.00
2024-01-30T09:56:08.457Z,55.00
2024-01-30T10:01:11.180Z,52.00
2024-01-30T10:06:14.499Z,48.00
2024-01-30T10:11:16.450Z,50.00
2024-01-30T10:16:18.385Z,42.33
2024-01-30T10:21:20.344Z,48.00
2024-01-30T10:26:22.111Z,45.00
2024-01-30T10:31:24.999Z,46.50
2024-01-30T10:36:30.268Z,47.50
2024-01-30T10:41:34.407Z,49.00
2024-01-30T10:46:38.981Z,49.00
2024-01-30T10:51:41.620Z,46.00
2024-01-30T10:56:43.614Z,51.00
2024-01-30T11:01:46.155Z,50.00
2024-01-30T11:06:50.099Z,52.00
2024-01-30T11:12:02.449Z,46.00
2024-01-30T11:17:04.584Z,50.50
2024-01-30T11:22:12.540Z,50.00
2024-01-30T11:27:15.792Z,41.33
2024-01-30T11:32:24.725Z,51.50
2024-01-30T11:37:28.159Z,49.00
2024-01-30T11:42:30.913Z,46.50
2024-01-30T11:47:39.495Z,45.50
2024-01-30T11:52:43.805Z,49.33
2024-01-30T11:57:46.044Z,50.00
2024-01-30T12:02:51.961Z,43.00
2024-01-30T12:07:53.980Z,46.00
2024-01-30T12:12:56.436Z,47.50
2024-01-30T12:18:08.884Z,47.33
2024-01-30T12:23:12.792Z,47.00
2024-01-30T12:28:16.469Z,44.50
2024-01-30T12:33:21.552Z,47.00
2024-01-30T12:38:25.199Z,44.00
2024-01-30T12:48:40.464Z,42.00
2024-01-30T12:53:42.347Z,40.00
2024-01-30T12:58:45.350Z,41.00
2024-01-30T13:03:48.409Z,42.00
2024-01-30T13:08:50.318Z,45.00
2024-01-30T13:13:53.594Z,42.50
2024-01-30T13:18:56.212Z,42.00
2024-01-30T13:23:58.240Z,39.00
2024-01-30T13:29:02.236Z,41.50
2024-01-30T13:34:07.024Z,43.50
2024-01-30T13:39:11.341Z,43.00
2024-01-30T13:44:13.292Z,43.00
2024-01-30T13:49:15.171Z,41.50
2024-01-30T13:54:17.286Z,43.00
2024-01-30T13:59:24.248Z,45.00
2024-01-30T14:04:26.190Z,40.50
2024-01-30T14:09:29.574Z,44.50
2024-01-30T14:14:31.400Z,45.00
2024-01-30T14:19:34.749Z,45.00
2024-01-30T14:24:37.987Z,41.50
2024-01-30T14:29:40.067Z,43.00
2024-01-30T14:34:42.327Z,44.00
2024-01-30T14:39:44.403Z,43.50
2024-01-30T14:44:46.132Z,47.00
2024-01-30T14:49:48.097Z,46.00
2024-01-30T14:54:50.140Z,37.50
2024-01-30T14:59:52.083Z,42.00
2024-01-30T15:04:56.508Z,47.00
2024-01-30T15:09:58.431Z,43.00
2024-01-30T15:15:02.055Z,44.00
2024-01-30T15:20:04.817Z,46.00
2024-01-30T15:25:07.250Z,47.00
2024-01-30T15:30:11.997Z,48.50
2024-01-30T15:35:14.045Z,49.00
2024-01-30T15:40:16.393Z,48.00
2024-01-30T15:45:18.209Z,45.00
2024-01-30T15:50:20.170Z,53.00
2024-01-30T15:55:21.978Z,45.33
2024-01-30T16:00:23.964Z,54.00
2024-01-30T16:05:25.753Z,44.33
2024-01-30T16:10:27.810Z,46.50
2024-01-30T16:15:29.678Z,56.25
2024-01-30T16:20:31.642Z,52.50
2024-01-30T16:25:33.677Z,48.33
2024-01-30T16:30:35.562Z,54.00
2024-01-30T16:35:45.531Z,55.00
2024-01-30T16:40:50.525Z,61.00
2024-01-30T16:45:52.344Z,57.00
2024-01-30T16:50:54.161Z,46.00
2024-01-30T16:55:55.957Z,42.00
2024-01-30T17:00:58.341Z,46.00
2024-01-30T17:06:06.087Z,48.00
2024-01-30T17:11:09.591Z,43.00
2024-01-30T17:16:12.353Z,48.50
2024-01-30T17:21:21.154Z,42.50
2024-01-30T17:26:23.099Z,46.00
2024-01-30T17:31:25.789Z,50.00
2024-01-30T17:36:27.601Z,58.00
2024-01-30T17:41:29.462Z,49.00
2024-01-30T17:46:32.094Z,48.00
2024-01-30T17:51:34.180Z,42.00
2024-01-30T17:56:36.728Z,42.00
2024-01-30T18:01:38.709Z,22.00
2024-01-30T18:06:40.613Z,45.00
2024-01-30T18:11:42.555Z,40.00
2024-01-30T18:16:44.526Z,45.00
2024-01-30T18:21:46.475Z,52.00
2024-01-30T18:26:48.342Z,46.00
2024-01-30T18:31:50.520Z,33.00
2024-01-30T18:36:52.674Z,39.00
2024-01-30T18:41:54.866Z,36.00
2024-01-30T18:46:56.735Z,42.00
2024-01-30T18:51:59.958Z,33.00
2024-01-30T18:57:01.906Z,30.00
2024-01-30T19:02:06.968Z,25.00
2024-01-30T19:07:09.457Z,27.00
2024-01-30T19:12:12.351Z,27.00
2024-01-30T19:17:15.325Z,24.00
2024-01-30T19:22:19.414Z,25.00
2024-01-30T19:27:21.301Z,28.00
2024-01-30T19:32:23.658Z,23.50
2024-01-30T19:37:25.857Z,27.00
2024-01-30T19:42:30.122Z,23.00
2024-01-30T19:47:31.886Z,30.00
2024-01-30T19:52:34.708Z,7.00
2024-01-30T19:57:39.408Z,26.00
2024-01-30T20:02:41.708Z,30.00
2024-01-30T20:07:43.641Z,24.50
2024-01-30T20:12:45.611Z,28.00
2024-01-30T20:17:48.332Z,30.00
2024-01-30T20:22:50.139Z,27.50
2024-01-30T20:27:52.086Z,25.00
2024-01-30T20:32:55.549Z,33.00
2024-01-30T20:37:58.187Z,34.00
2024-01-30T20:43:02.497Z,30.00
2024-01-30T20:48:04.936Z,33.00
2024-01-30T20:53:27.202Z,33.00
2024-01-30T20:58:29.167Z,30.00
2024-01-30T21:03:32.477Z,35.00
2024-01-30T21:08:34.411Z,51.00
2024-01-30T21:13:36.860Z,28.00
2024-01-30T21:18:41.537Z,40.00
2024-01-30T21:23:46.400Z,10.00
2024-01-30T21:28:48.400Z,24.00
2024-01-30T21:33:52.342Z,16.00
2024-01-30T21:38:54.372Z,22.00
2024-01-30T21:43:56.148Z,19.00
2024-01-30T21:48:58.001Z,27.00
2024-01-30T21:53:59.960Z,21.00
2024-01-30T21:59:04.788Z,27.00
2024-01-30T22:04:07.290Z,24.33
2024-01-30T22:09:10.247Z,24.50
2024-01-30T22:14:12.069Z,27.00
2024-01-30T22:19:14.320Z,21.50
2024-01-30T22:24:16.163Z,30.00
2024-01-30T22:29:17.954Z,25.00
2024-01-30T22:34:19.900Z,22.00
2024-01-30T22:39:21.745Z,16.00
2024-01-30T22:44:23.792Z,23.00
2024-01-30T22:49:25.856Z,25.00
2024-01-30T22:54:27.754Z,28.00
2024-01-30T22:59:29.614Z,28.00
2024-01-30T23:04:31.538Z,22.00
2024-01-30T23:09:36.136Z,24.00
2024-01-30T23:14:38.023Z,26.00
2024-01-30T23:19:39.988Z,25.00
2024-01-30T23:24:41.780Z,26.00
2024-01-30T23:29:43.580Z,23.00
2024-01-30T23:34:45.411Z,24.00
2024-01-30T23:39:47.158Z,22.00
2024-01-30T23:44:48.949Z,21.00
2024-01-30T23:49:50.966Z,28.00
2024-01-30T23:54:52.708Z,22.00
2024-01-30T23:59:57.358Z,27.00
